Satin, Texas
Current Conditions -  °F | °C
As of 2:55 PM on Tuesday 27 Jan 2015 (Local Time) from KPWG Reporting Station
Clear Clear  
Wind Chill: 79°   Ceiling: Unl
Heat Index: 79°   Visibility: 10mi
Dew Point: 41°   Wind: 0mph
Humidity: 26%   Direction: NA
Pressure: 30.13"   Gusts: NA
Location:  31.35°N, 97.03°W
Report Text: KPWG 272055Z AUTO 00000KT 10SM CLR 26/05 A3013 RMK AO1 57027
Loading
Personal Weather Stations






























Interactive Weather Map New forecast layout! Learn more

10-Day Weather Forecast

Advertisements
Track Severe Weather on mobile